createdAt,value
2022-10-17T00:02:49.638Z,97854.13
2022-10-17T00:05:51.195Z,97857.69
2022-10-17T00:08:52.800Z,97856.50
2022-10-17T00:11:54.377Z,97874.31
2022-10-17T00:14:55.907Z,97870.31
2022-10-17T00:17:57.465Z,97859.88
2022-10-17T00:20:58.981Z,97848.59
2022-10-17T00:24:01.071Z,97841.59
2022-10-17T00:27:02.611Z,97844.66
2022-10-17T00:30:04.625Z,97844.75
2022-10-17T00:33:06.321Z,97841.38
2022-10-17T00:36:13.532Z,97839.69
2022-10-17T00:39:15.450Z,97841.06
2022-10-17T00:42:16.993Z,97829.47
2022-10-17T00:45:20.700Z,97800.09
2022-10-17T00:48:23.366Z,97801.66
2022-10-17T00:51:27.028Z,97799.47
2022-10-17T00:54:32.968Z,97787.25
2022-10-17T00:57:34.514Z,97781.94
2022-10-17T01:00:37.123Z,97784.78
2022-10-17T01:03:39.208Z,97797.50
2022-10-17T01:06:40.764Z,97796.09
2022-10-17T01:09:42.554Z,97803.59
2022-10-17T01:13:00.137Z,97784.66
2022-10-17T01:16:05.674Z,97768.69
2022-10-17T01:19:13.801Z,97769.47
2022-10-17T01:22:15.388Z,97771.53
2022-10-17T01:25:16.870Z,97762.66
2022-10-17T01:28:18.354Z,97763.63
2022-10-17T01:31:22.362Z,97753.94
2022-10-17T01:34:36.050Z,97762.09
2022-10-17T01:37:48.751Z,97753.69
2022-10-17T01:40:56.606Z,97753.88
2022-10-17T01:44:05.724Z,97736.69
2022-10-17T01:47:11.602Z,97733.41
2022-10-17T01:50:24.321Z,97751.13
2022-10-17T01:53:28.315Z,97732.84
2022-10-17T01:56:30.624Z,97733.50
2022-10-17T01:59:36.311Z,97746.06
2022-10-17T02:02:37.930Z,97756.31
2022-10-17T02:05:40.204Z,97752.72
2022-10-17T02:08:41.759Z,97756.34
2022-10-17T02:11:43.993Z,97753.03
2022-10-17T02:14:46.693Z,97760.13
2022-10-17T02:17:55.040Z,97759.69
2022-10-17T02:20:58.782Z,97757.50
2022-10-17T02:24:06.566Z,97755.31
2022-10-17T02:27:09.786Z,97760.81
2022-10-17T02:30:14.278Z,97775.41
2022-10-17T02:33:17.249Z,97782.31
2022-10-17T02:36:20.713Z,97771.81
2022-10-17T02:39:22.582Z,97793.16
2022-10-17T02:42:24.156Z,97776.97
2022-10-17T02:45:25.827Z,97769.28
2022-10-17T02:48:27.348Z,97776.38
2022-10-17T02:51:48.137Z,97773.84
2022-10-17T02:54:50.621Z,97775.31
2022-10-17T02:57:56.632Z,97778.59
2022-10-17T03:00:58.717Z,97775.66
2022-10-17T03:04:05.732Z,97782.22
2022-10-17T03:07:07.307Z,97781.63
2022-10-17T03:10:08.970Z,97783.69
2022-10-17T03:13:11.457Z,97773.03
2022-10-17T03:16:15.442Z,97767.97
2022-10-17T03:19:17.192Z,97788.16
2022-10-17T03:22:18.830Z,97782.19
2022-10-17T03:25:21.706Z,97783.13
2022-10-17T03:28:24.491Z,97786.91
2022-10-17T03:31:26.188Z,97786.22
2022-10-17T03:34:28.199Z,97780.75
2022-10-17T03:37:30.192Z,97789.66
2022-10-17T03:40:32.088Z,97775.06
2022-10-17T03:43:33.838Z,97776.78
2022-10-17T03:46:36.018Z,97781.63
2022-10-17T03:49:39.033Z,97780.06
2022-10-17T03:52:40.610Z,97794.31
2022-10-17T03:55:43.210Z,97783.47
2022-10-17T03:58:44.990Z,97783.47
2022-10-17T04:01:48.255Z,97792.25
2022-10-17T04:04:49.900Z,97802.28
2022-10-17T04:07:51.494Z,97813.31
2022-10-17T04:11:08.464Z,97809.88
2022-10-17T04:14:10.313Z,97819.25
2022-10-17T04:17:13.572Z,97819.53
2022-10-17T04:20:15.178Z,97819.63
2022-10-17T04:23:16.917Z,97828.81
2022-10-17T04:26:18.576Z,97828.84
2022-10-17T04:29:20.243Z,97828.09
2022-10-17T04:32:25.914Z,97834.97
2022-10-17T04:35:57.834Z,97842.50
2022-10-17T04:39:01.713Z,97845.19
2022-10-17T04:42:04.412Z,97840.84
2022-10-17T04:45:06.882Z,97853.56
2022-10-17T04:48:10.179Z,97857.19
2022-10-17T04:51:15.990Z,97867.69
2022-10-17T04:54:36.553Z,97860.88
2022-10-17T04:57:42.805Z,97865.44
2022-10-17T05:00:51.562Z,97872.19
2022-10-17T05:03:57.189Z,97875.13
2022-10-17T05:06:58.788Z,97882.34
2022-10-17T05:10:15.901Z,97880.28
2022-10-17T05:13:20.528Z,97887.03
2022-10-17T05:16:22.981Z,97893.56
2022-10-17T05:19:24.638Z,97890.25
2022-10-17T05:22:26.774Z,97895.91
2022-10-17T05:25:29.489Z,97891.63
2022-10-17T05:28:31.170Z,97886.25
2022-10-17T05:31:35.425Z,97885.19
2022-10-17T05:34:36.956Z,97894.44
2022-10-17T05:37:38.680Z,97898.00
2022-10-17T05:40:40.683Z,97906.72
2022-10-17T05:43:42.956Z,97904.38
2022-10-17T05:46:48.061Z,97908.75
2022-10-17T05:49:52.505Z,97909.22
2022-10-17T05:53:00.711Z,97911.28
2022-10-17T05:56:04.219Z,97905.75
2022-10-17T05:59:07.405Z,97922.06
2022-10-17T06:02:24.715Z,97920.38
2022-10-17T06:05:26.593Z,97918.31
2022-10-17T06:08:28.504Z,97931.63
2022-10-17T06:11:30.038Z,97935.47
2022-10-17T06:14:31.625Z,97936.56
2022-10-17T06:17:36.556Z,97941.91
2022-10-17T06:20:41.458Z,97940.34
2022-10-17T06:23:45.505Z,97939.34
2022-10-17T06:26:54.531Z,97926.94
2022-10-17T06:29:56.899Z,97943.50
2022-10-17T06:32:58.577Z,97948.72
2022-10-17T06:36:01.824Z,97955.94
2022-10-17T06:39:05.345Z,97976.19
2022-10-17T06:42:27.177Z,97964.91
2022-10-17T06:45:40.544Z,97969.94
2022-10-17T06:48:49.638Z,97967.28
2022-10-17T06:52:14.797Z,97974.97
2022-10-17T06:55:26.407Z,97980.41
2022-10-17T06:59:03.754Z,97991.25
2022-10-17T07:02:12.568Z,97996.16
2022-10-17T07:05:14.257Z,97972.50
2022-10-17T07:08:17.029Z,98006.81
2022-10-17T07:11:20.590Z,98018.75
2022-10-17T07:14:31.722Z,98017.97
2022-10-17T07:17:33.984Z,98016.28
2022-10-17T07:20:35.746Z,98020.84
2022-10-17T07:23:38.603Z,98016.66
2022-10-17T07:26:40.772Z,98021.97
2022-10-17T07:29:42.429Z,98020.41
2022-10-17T07:32:48.997Z,98027.16
2022-10-17T07:35:52.661Z,98021.31
2022-10-17T07:38:54.413Z,98037.31
2022-10-17T07:41:55.994Z,98044.50
2022-10-17T07:44:59.012Z,98039.84
2022-10-17T07:48:02.539Z,98033.63
2022-10-17T07:51:06.370Z,98049.13
2022-10-17T07:54:07.909Z,98051.56
2022-10-17T07:57:09.619Z,98050.75
2022-10-17T08:00:11.372Z,98064.75
2022-10-17T08:03:16.040Z,98079.53
2022-10-17T08:06:17.750Z,98075.38
2022-10-17T08:09:19.402Z,98071.00
2022-10-17T08:12:20.954Z,98082.66
2022-10-17T08:15:23.173Z,98074.75
2022-10-17T08:18:26.533Z,98089.44
2022-10-17T08:21:28.081Z,98101.84
2022-10-17T08:24:29.668Z,98109.44
2022-10-17T08:27:32.676Z,98076.19
2022-10-17T08:30:34.276Z,98122.72
2022-10-17T08:33:35.947Z,98116.97
2022-10-17T08:36:37.567Z,98126.09
2022-10-17T08:39:39.606Z,98127.56
2022-10-17T08:42:52.741Z,98129.00
2022-10-17T08:46:02.988Z,98132.53
2022-10-17T08:49:06.620Z,98140.41
2022-10-17T08:52:22.608Z,98153.31
2022-10-17T08:55:26.959Z,98161.84
2022-10-17T08:58:29.321Z,98159.53
2022-10-17T09:01:33.998Z,98164.94
2022-10-17T09:04:41.384Z,98173.75
2022-10-17T09:07:55.031Z,98164.34
2022-10-17T09:11:06.290Z,98181.19
2022-10-17T09:14:26.589Z,98162.16
2022-10-17T09:17:52.568Z,98168.47
2022-10-17T09:21:20.671Z,98178.91
2022-10-17T09:24:45.654Z,98170.56
2022-10-17T09:27:53.285Z,98197.69
2022-10-17T09:31:00.714Z,98197.09
2022-10-17T09:34:03.178Z,98200.41
2022-10-17T09:37:07.521Z,98190.97
2022-10-17T09:40:13.319Z,98207.50
2022-10-17T09:43:15.428Z,98178.72
2022-10-17T09:46:23.576Z,98196.53
2022-10-17T09:49:38.587Z,98198.09
2022-10-17T09:52:41.291Z,98208.03
2022-10-17T09:55:43.950Z,98210.06
2022-10-17T09:58:46.626Z,98220.47
2022-10-17T10:01:48.124Z,98207.25
2022-10-17T10:05:07.264Z,98212.59
2022-10-17T10:08:16.184Z,98216.06
2022-10-17T10:11:18.276Z,98220.78
2022-10-17T10:14:39.658Z,98243.16
2022-10-17T10:17:44.407Z,98232.78
2022-10-17T10:20:46.884Z,98239.22
2022-10-17T10:24:03.569Z,98247.22
2022-10-17T10:27:05.175Z,98241.72
2022-10-17T10:30:07.181Z,98257.19
2022-10-17T10:33:10.445Z,98251.81
2022-10-17T10:36:12.003Z,98287.13
2022-10-17T10:39:39.599Z,98247.56
2022-10-17T10:42:41.157Z,98263.16
2022-10-17T10:45:48.149Z,98259.69
2022-10-17T10:48:51.403Z,98273.69
2022-10-17T10:51:52.962Z,98266.06
2022-10-17T10:54:55.820Z,98269.31
2022-10-17T10:57:58.800Z,98265.09
2022-10-17T11:01:03.680Z,98290.28
2022-10-17T11:04:31.685Z,98273.34
2022-10-17T11:07:37.354Z,98299.66
2022-10-17T11:10:56.104Z,98276.63
2022-10-17T11:14:02.624Z,98273.28
2022-10-17T11:17:19.549Z,98293.63
2022-10-17T11:20:23.218Z,98293.91
2022-10-17T11:23:28.330Z,98293.56
2022-10-17T11:26:31.763Z,98296.91
2022-10-17T11:29:34.563Z,98299.09
2022-10-17T11:32:40.662Z,98301.78
2022-10-17T11:35:43.204Z,98318.22
2022-10-17T11:38:49.329Z,98316.22
2022-10-17T11:42:03.535Z,98312.81
2022-10-17T11:45:09.210Z,98303.19
2022-10-17T11:48:12.830Z,98339.41
2022-10-17T11:54:42.531Z,98324.50
2022-10-17T11:57:59.626Z,98319.59
2022-10-17T12:01:02.044Z,98319.09
2022-10-17T12:04:04.004Z,98329.66
2022-10-17T12:07:14.406Z,98322.75
2022-10-17T12:10:15.938Z,98336.66
2022-10-17T12:13:37.742Z,98351.91
2022-10-17T12:16:39.642Z,98377.19
2022-10-17T12:19:41.430Z,98423.94
2022-10-17T12:22:49.446Z,98379.00
2022-10-17T12:25:52.348Z,98411.31
2022-10-17T12:28:53.892Z,98350.81
2022-10-17T12:31:57.034Z,98379.31
2022-10-17T12:34:58.617Z,98408.81
2022-10-17T12:38:01.565Z,98353.28
2022-10-17T12:41:03.537Z,98402.19
2022-10-17T12:44:14.802Z,98418.75
2022-10-17T12:47:27.882Z,98407.88
2022-10-17T12:50:48.416Z,98399.66
2022-10-17T12:53:53.442Z,98370.84
2022-10-17T12:56:54.961Z,98406.44
2022-10-17T12:59:58.621Z,98412.50
2022-10-17T13:03:20.092Z,98438.75
2022-10-17T13:06:29.413Z,98501.44
2022-10-17T13:09:32.015Z,98472.56
2022-10-17T13:12:37.672Z,98471.22
2022-10-17T13:15:45.594Z,98450.19
2022-10-17T13:18:47.225Z,98485.06
2022-10-17T13:22:05.977Z,98461.84
2022-10-17T13:25:09.890Z,98437.38
2022-10-17T13:28:12.840Z,98475.19
2022-10-17T13:31:27.058Z,98439.03
2022-10-17T13:34:28.648Z,98470.44
2022-10-17T13:37:30.186Z,98434.09
2022-10-17T13:40:49.144Z,98418.16
2022-10-17T13:43:51.820Z,98422.13
2022-10-17T13:46:53.506Z,98467.03
2022-10-17T13:49:55.746Z,98473.00
2022-10-17T13:53:12.642Z,98500.31
2022-10-17T13:56:28.389Z,98460.44
2022-10-17T13:59:38.293Z,98469.41
2022-10-17T14:02:40.544Z,98460.81
2022-10-17T14:06:02.364Z,98460.97
2022-10-17T14:09:05.411Z,98459.63
2022-10-17T14:12:10.668Z,98466.09
2022-10-17T14:15:13.846Z,98596.19
2022-10-17T14:18:17.814Z,98486.19
2022-10-17T14:21:43.922Z,98500.38
2022-10-17T14:24:43.511Z,98495.97
2022-10-17T14:28:09.760Z,98508.56
2022-10-17T14:31:11.248Z,98509.38
2022-10-17T14:34:16.812Z,98530.38
2022-10-17T14:37:31.336Z,98535.22
2022-10-17T14:40:33.926Z,98584.50
2022-10-17T14:43:35.488Z,98586.44
2022-10-17T14:46:37.100Z,98560.69
2022-10-17T14:49:39.264Z,98590.03
2022-10-17T14:52:41.101Z,98583.06
2022-10-17T14:55:54.447Z,98567.63
2022-10-17T14:58:55.983Z,98565.41
2022-10-17T15:01:57.491Z,98600.16
2022-10-17T15:04:59.037Z,98607.72
2022-10-17T15:08:00.545Z,98599.19
2022-10-17T15:11:02.103Z,98603.63
2022-10-17T15:14:03.904Z,98598.31
2022-10-17T15:17:10.369Z,98585.44
2022-10-17T15:20:12.546Z,98608.97
2022-10-17T15:23:14.388Z,98646.38
2022-10-17T15:26:20.396Z,98642.84
2022-10-17T15:29:21.882Z,98629.44
2022-10-17T15:32:23.423Z,98658.75
2022-10-17T15:35:24.918Z,98604.78
2022-10-17T15:38:26.430Z,98639.25
2022-10-17T15:41:28.917Z,98702.25
2022-10-17T15:44:30.493Z,98631.81
2022-10-17T15:47:35.341Z,98657.75
2022-10-17T15:50:36.952Z,98619.78
2022-10-17T15:53:38.497Z,98671.56
2022-10-17T15:56:40.730Z,98647.75
2022-10-17T15:59:42.497Z,98671.13
2022-10-17T16:02:44.334Z,98670.53
2022-10-17T16:05:45.965Z,98675.97
2022-10-17T16:08:47.686Z,98702.00
2022-10-17T16:11:49.345Z,98681.72
2022-10-17T16:14:51.523Z,98678.34
2022-10-17T16:17:54.537Z,98669.81
2022-10-17T16:20:56.093Z,98718.63
2022-10-17T16:23:57.711Z,98707.03
2022-10-17T16:26:59.256Z,98687.31
2022-10-17T16:30:00.954Z,98728.06
2022-10-17T16:33:02.537Z,98701.16
2022-10-17T16:36:04.244Z,98719.25
2022-10-17T16:39:06.222Z,98703.22
2022-10-17T16:42:07.911Z,98732.06
2022-10-17T16:45:10.470Z,98710.03
2022-10-17T16:48:12.337Z,98709.44
2022-10-17T16:51:14.448Z,98724.44
2022-10-17T16:54:16.203Z,98732.53
2022-10-17T16:57:17.801Z,98732.03
2022-10-17T17:00:19.553Z,98737.16
2022-10-17T17:03:21.101Z,98755.63
2022-10-17T17:06:24.482Z,98751.69
2022-10-17T17:09:26.106Z,98750.25
2022-10-17T17:12:27.838Z,98739.91
2022-10-17T17:15:29.380Z,98812.22
2022-10-17T17:18:31.005Z,98835.97
2022-10-17T17:21:33.061Z,98764.31
2022-10-17T17:24:34.640Z,98775.78
2022-10-17T17:27:36.601Z,98763.94
2022-10-17T17:30:38.262Z,98707.88
2022-10-17T17:33:40.030Z,98778.28
2022-10-17T17:36:41.974Z,98782.56
2022-10-17T17:39:43.531Z,98763.16
2022-10-17T17:42:45.104Z,98761.88
2022-10-17T17:45:46.881Z,98782.13
2022-10-17T17:48:48.991Z,98805.13
2022-10-17T17:51:51.058Z,98798.16
2022-10-17T17:54:52.810Z,98804.72
2022-10-17T17:57:54.498Z,98831.13
2022-10-17T18:00:56.156Z,98805.00
2022-10-17T18:03:59.039Z,98817.16
2022-10-17T18:07:00.682Z,98807.72
2022-10-17T18:10:02.289Z,98838.69
2022-10-17T18:13:04.526Z,98807.81
2022-10-17T18:16:13.296Z,98845.41
2022-10-17T18:19:15.300Z,98856.16
2022-10-17T18:22:17.126Z,98862.28
2022-10-17T18:25:18.697Z,98824.66
2022-10-17T18:28:20.711Z,98857.41
2022-10-17T18:31:28.638Z,98897.31
2022-10-17T18:34:30.221Z,98867.78
2022-10-17T18:37:31.835Z,98863.84
2022-10-17T18:40:33.377Z,98878.53
2022-10-17T18:43:36.185Z,98893.53
2022-10-17T18:46:41.411Z,98910.28
2022-10-17T18:49:43.053Z,98929.03
2022-10-17T18:52:44.643Z,98921.03
2022-10-17T18:58:53.384Z,98952.13
2022-10-17T19:01:55.577Z,98947.00
2022-10-17T19:04:57.163Z,98960.84
2022-10-17T19:07:58.674Z,98932.81
2022-10-17T19:11:10.728Z,98966.94
2022-10-17T19:14:15.450Z,98981.38
2022-10-17T19:17:17.027Z,98993.47
2022-10-17T19:20:18.765Z,99010.56
2022-10-17T19:23:20.272Z,99022.84
2022-10-17T19:26:22.926Z,99032.94
2022-10-17T19:29:25.243Z,99043.84
2022-10-17T19:32:26.922Z,99048.41
2022-10-17T19:35:28.475Z,99048.34
2022-10-17T19:38:30.554Z,99060.34
2022-10-17T19:41:32.284Z,99069.72
2022-10-17T19:44:34.269Z,99084.69
2022-10-17T19:47:35.970Z,99080.50
2022-10-17T19:50:39.197Z,99101.34
2022-10-17T19:53:42.981Z,99086.88
2022-10-17T19:56:44.690Z,99083.13
2022-10-17T19:59:46.231Z,99099.13
2022-10-17T20:02:47.800Z,99106.34
2022-10-17T20:05:49.489Z,99103.50
2022-10-17T20:08:51.182Z,99124.31
2022-10-17T20:11:52.756Z,99105.19
2022-10-17T20:14:55.167Z,99102.22
2022-10-17T20:17:57.183Z,99122.19
2022-10-17T20:21:03.802Z,99120.34
2022-10-17T20:24:06.457Z,99117.94
2022-10-17T20:27:08.085Z,99113.69
2022-10-17T20:30:10.243Z,99115.91
2022-10-17T20:33:13.882Z,99102.66
2022-10-17T20:36:16.591Z,99114.94
2022-10-17T20:39:18.996Z,99128.66
2022-10-17T20:42:21.424Z,99130.03
2022-10-17T20:45:37.437Z,99132.94
2022-10-17T20:48:45.442Z,99119.94
2022-10-17T20:51:47.058Z,99137.53
2022-10-17T20:54:48.670Z,99142.25
2022-10-17T20:57:52.587Z,99142.13
2022-10-17T21:00:54.139Z,99152.25
2022-10-17T21:03:58.251Z,99163.50
2022-10-17T21:07:02.773Z,99159.28
2022-10-17T21:10:30.732Z,99155.56
2022-10-17T21:13:26.423Z,99170.44
2022-10-17T21:16:28.617Z,99160.88
2022-10-17T21:19:30.192Z,99167.09
2022-10-17T21:22:33.359Z,99142.88
2022-10-17T21:25:35.020Z,99149.91
2022-10-17T21:28:37.058Z,99157.41
2022-10-17T21:31:39.566Z,99167.00
2022-10-17T21:34:41.231Z,99175.53
2022-10-17T21:37:42.767Z,99185.41
2022-10-17T21:40:46.435Z,99189.66
2022-10-17T21:43:48.245Z,99198.44
2022-10-17T21:46:50.049Z,99210.13
2022-10-17T21:49:51.548Z,99218.09
2022-10-17T21:52:53.122Z,99234.34
2022-10-17T21:55:54.838Z,99219.69
2022-10-17T21:58:57.540Z,99235.97
2022-10-17T22:01:59.263Z,99231.19
2022-10-17T22:05:00.929Z,99250.38
2022-10-17T22:08:02.446Z,99231.97
2022-10-17T22:11:08.199Z,99250.66
2022-10-17T22:14:13.753Z,99253.88
2022-10-17T22:17:15.289Z,99246.94
2022-10-17T22:20:16.855Z,99254.97
2022-10-17T22:23:18.633Z,99267.28
2022-10-17T22:26:20.185Z,99267.81
2022-10-17T22:29:21.746Z,99271.53
2022-10-17T22:32:23.284Z,99292.59
2022-10-17T22:35:24.840Z,99298.97
2022-10-17T22:38:26.523Z,99286.22
2022-10-17T22:41:28.072Z,99301.91
2022-10-17T22:44:29.665Z,99296.31
2022-10-17T22:47:31.734Z,99322.72
2022-10-17T22:50:33.653Z,99326.16
2022-10-17T22:53:37.286Z,99337.34
2022-10-17T22:56:38.941Z,99345.09
2022-10-17T22:59:40.537Z,99353.88
2022-10-17T23:02:42.110Z,99368.00
2022-10-17T23:05:44.045Z,99383.44
2022-10-17T23:08:45.852Z,99388.53
2022-10-17T23:11:47.410Z,99392.25
2022-10-17T23:14:48.980Z,99399.44
2022-10-17T23:17:50.517Z,99405.56
2022-10-17T23:20:52.081Z,99421.31
2022-10-17T23:23:53.677Z,99422.88
2022-10-17T23:26:55.812Z,99423.63
2022-10-17T23:29:57.401Z,99419.72
2022-10-17T23:32:59.176Z,99422.19
2022-10-17T23:36:03.579Z,99412.97
2022-10-17T23:39:05.723Z,99411.78
2022-10-17T23:42:07.333Z,99406.78
2022-10-17T23:45:09.179Z,99414.81
2022-10-17T23:48:10.753Z,99429.75
2022-10-17T23:51:12.552Z,99435.91
2022-10-17T23:54:14.293Z,99448.44
2022-10-17T23:57:15.938Z,99457.16
